Time;durP1;ratioP1;P1;durP2;ratioP2;P2;SDS_P1;SDS_P2;PMS_P1;PMS_P2;Temp;Humidity;BMP_temperature;BMP_pressure;BME280_temperature;BME280_humidity;BME280_pressure;Samples;Min_cycle;Max_cycle;Signal;HPM_P1;HPM_P2
2021/09/01 00:01:51;;;;;;;10.10;3.83;;;16.60;99.90;;;;;;5048786;28;20198;-81
2021/09/01 00:04:18;;;;;;;9.70;4.13;;;16.60;99.90;;;;;;5049664;28;20201;-82
2021/09/01 00:06:45;;;;;;;9.43;3.90;;;16.60;99.90;;;;;;5066821;28;20299;-82
2021/09/01 00:09:12;;;;;;;9.48;3.78;;;16.50;99.90;;;;;;5057535;28;20213;-84
2021/09/01 00:11:39;;;;;;;8.75;3.58;;;16.50;99.90;;;;;;5049415;28;20208;-87
2021/09/01 00:14:07;;;;;;;12.63;4.25;;;16.50;99.90;;;;;;5066898;28;20867;-80
2021/09/01 00:16:34;;;;;;;13.45;4.53;;;16.50;99.90;;;;;;5069614;28;20227;-84
2021/09/01 00:19:03;;;;;;;11.43;4.25;;;16.50;99.90;;;;;;5070115;28;20193;-81
2021/09/01 00:21:30;;;;;;;12.98;4.80;;;16.50;99.90;;;;;;5053920;28;20210;-84
2021/09/01 00:23:57;;;;;;;12.20;3.92;;;16.40;99.90;;;;;;5050875;28;20582;-84
2021/09/01 00:26:24;;;;;;;10.77;4.25;;;16.50;99.90;;;;;;5050823;28;20196;-80
2021/09/01 00:28:52;;;;;;;12.60;4.90;;;16.50;99.90;;;;;;5051412;28;20206;-83
2021/09/01 00:31:20;;;;;;;16.02;4.35;;;16.40;99.90;;;;;;5072071;28;20216;-82
2021/09/01 00:33:47;;;;;;;16.27;5.43;;;16.40;99.90;;;;;;5072903;28;20197;-84
2021/09/01 00:36:15;;;;;;;11.77;4.28;;;16.50;99.90;;;;;;5071676;28;20233;-82
2021/09/01 00:38:42;;;;;;;13.35;4.20;;;16.40;99.90;;;;;;5070787;28;20197;-83
2021/09/01 00:41:12;;;;;;;11.90;4.10;;;16.40;99.90;;;;;;5069749;28;20216;-84
2021/09/01 00:43:39;;;;;;;10.02;4.07;;;16.40;99.90;;;;;;5069956;28;20185;-82
2021/09/01 00:46:07;;;;;;;13.05;4.05;;;16.40;99.90;;;;;;5068949;28;20331;-81
2021/09/01 00:48:35;;;;;;;15.25;4.38;;;16.40;99.90;;;;;;5068800;28;20205;-82
2021/09/01 00:51:02;;;;;;;10.93;4.38;;;16.50;99.90;;;;;;5069376;28;20894;-83
2021/09/01 00:53:30;;;;;;;10.85;3.72;;;16.50;99.90;;;;;;5069269;28;20209;-83
2021/09/01 00:55:57;;;;;;;10.95;3.83;;;16.40;99.90;;;;;;5068696;28;20217;-82
2021/09/01 00:58:24;;;;;;;11.70;3.55;;;16.40;99.90;;;;;;5068639;28;20193;-82
2021/09/01 01:01:14;;;;;;;8.30;3.78;;;16.40;99.90;;;;;;5049993;28;20225;-82
2021/09/01 01:03:43;;;;;;;11.63;3.75;;;16.40;99.90;;;;;;5059935;28;20228;-82
2021/09/01 01:06:10;;;;;;;11.43;4.03;;;16.40;99.90;;;;;;5068168;28;20205;-85
2021/09/01 01:08:37;;;;;;;9.15;4.15;;;16.40;99.90;;;;;;5068388;28;20216;-81
2021/09/01 01:11:03;;;;;;;7.10;2.90;;;16.40;99.90;;;;;;5068274;28;20400;-82
2021/09/01 01:13:31;;;;;;;7.32;3.13;;;16.30;99.90;;;;;;5068377;28;20240;-84
2021/09/01 01:15:58;;;;;;;8.00;3.55;;;16.30;99.90;;;;;;5067410;28;20225;-81
2021/09/01 01:18:25;;;;;;;6.72;3.55;;;16.30;99.90;;;;;;5067353;28;20676;-82
2021/09/01 01:20:55;;;;;;;8.80;3.20;;;16.30;99.90;;;;;;5049595;28;20210;-83
2021/09/01 01:23:23;;;;;;;6.85;2.97;;;16.30;99.90;;;;;;5047969;28;20202;-84
2021/09/01 01:25:54;;;;;;;11.18;3.38;;;16.20;99.90;;;;;;5048193;28;20217;-84
2021/09/01 01:28:21;;;;;;;7.22;3.30;;;16.20;99.90;;;;;;5047879;28;20190;-83
2021/09/01 01:30:48;;;;;;;5.88;3.08;;;16.20;99.90;;;;;;5057519;28;20205;-89
2021/09/01 01:33:15;;;;;;;6.82;2.83;;;16.20;99.90;;;;;;5068798;28;20205;-89
2021/09/01 01:35:43;;;;;;;5.23;3.00;;;16.20;99.90;;;;;;5068474;28;20318;-83
2021/09/01 01:38:12;;;;;;;6.88;2.67;;;16.20;99.90;;;;;;5069163;28;20221;-88
2021/09/01 01:40:40;;;;;;;5.13;2.60;;;16.20;99.90;;;;;;5058594;28;20210;-88
2021/09/01 01:43:09;;;;;;;4.65;2.70;;;16.20;99.90;;;;;;5048007;28;20237;-87
2021/09/01 01:45:38;;;;;;;5.85;2.83;;;16.20;99.90;;;;;;5049430;28;20214;-88
2021/09/01 01:48:06;;;;;;;5.35;2.72;;;16.20;99.90;;;;;;5049314;28;20202;-90
2021/09/01 01:50:34;;;;;;;5.10;2.92;;;16.10;99.90;;;;;;5049518;28;20593;-92
2021/09/01 01:53:01;;;;;;;4.00;3.00;;;16.10;99.90;;;;;;5050034;28;20209;-82
2021/09/01 01:55:27;;;;;;;5.80;2.67;;;16.10;99.90;;;;;;5082928;28;20209;-81
2021/09/01 01:57:55;;;;;;;3.90;2.47;;;16.10;99.90;;;;;;5071402;28;20502;-86
2021/09/01 02:00:23;;;;;;;6.00;2.50;;;16.10;99.90;;;;;;5046660;28;20205;-80
2021/09/01 02:02:50;;;;;;;6.53;2.70;;;16.10;99.90;;;;;;5056981;28;20262;-84
2021/09/01 02:05:18;;;;;;;7.07;2.78;;;16.10;99.90;;;;;;5068060;28;20197;-82
2021/09/01 02:07:44;;;;;;;6.53;2.83;;;16.10;99.90;;;;;;5066408;28;20215;-81
2021/09/01 02:10:12;;;;;;;5.50;2.72;;;16.10;99.90;;;;;;5067697;28;20208;-81
2021/09/01 02:12:39;;;;;;;4.97;2.47;;;16.10;99.90;;;;;;5066723;28;20260;-83
2021/09/01 02:15:09;;;;;;;4.82;2.78;;;16.00;99.90;;;;;;5049979;28;20220;-83
2021/09/01 02:17:37;;;;;;;5.10;2.67;;;16.00;99.90;;;;;;5045772;28;20205;-83
2021/09/01 02:20:05;;;;;;;3.90;2.17;;;16.00;99.90;;;;;;5045610;28;20194;-84
2021/09/01 02:22:32;;;;;;;5.47;2.70;;;16.00;99.90;;;;;;5047180;28;20221;-92
2021/09/01 02:24:59;;;;;;;7.25;2.72;;;16.00;99.90;;;;;;5048751;28;20558;-87
2021/09/01 02:27:26;;;;;;;3.50;2.30;;;16.00;99.90;;;;;;5048065;28;20190;-82
2021/09/01 02:29:52;;;;;;;5.32;2.83;;;16.00;99.90;;;;;;5055484;28;20531;-86
2021/09/01 02:32:19;;;;;;;4.35;2.10;;;16.00;99.90;;;;;;5067107;28;20201;-84
2021/09/01 02:34:47;;;;;;;4.95;2.58;;;16.00;99.90;;;;;;5065690;28;20201;-82
2021/09/01 02:37:14;;;;;;;4.78;2.20;;;15.90;99.90;;;;;;5066384;28;20240;-88
2021/09/01 02:39:41;;;;;;;4.72;2.42;;;15.90;99.90;;;;;;5069832;28;20217;-90
2021/09/01 02:42:08;;;;;;;4.20;2.55;;;15.90;99.90;;;;;;5068980;28;20581;-87
2021/09/01 02:44:35;;;;;;;5.38;2.45;;;15.90;99.90;;;;;;5069226;28;20209;-82
2021/09/01 02:47:02;;;;;;;4.50;2.80;;;15.90;99.90;;;;;;5069651;28;20197;-87
2021/09/01 02:49:29;;;;;;;5.07;2.72;;;15.90;99.90;;;;;;5069048;28;20213;-89
2021/09/01 02:51:57;;;;;;;3.83;2.17;;;15.90;99.90;;;;;;5068768;28;20194;-89
2021/09/01 02:54:24;;;;;;;5.63;2.58;;;15.90;99.90;;;;;;5070467;28;20197;-80
2021/09/01 02:56:51;;;;;;;6.20;2.90;;;15.90;99.90;;;;;;5068329;28;20244;-80
2021/09/01 02:59:18;;;;;;;5.18;2.78;;;15.90;99.90;;;;;;5068032;28;20197;-82
2021/09/01 03:01:44;;;;;;;8.77;3.40;;;15.80;99.90;;;;;;5067869;28;20636;-83
2021/09/01 03:04:11;;;;;;;8.02;2.80;;;15.80;99.90;;;;;;5068807;28;20212;-86
2021/09/01 03:06:38;;;;;;;4.55;2.70;;;15.90;99.90;;;;;;5072438;28;20213;-85
2021/09/01 03:09:06;;;;;;;5.53;3.08;;;15.80;99.90;;;;;;5072059;28;20252;-86
2021/09/01 03:11:33;;;;;;;6.68;2.97;;;15.80;99.90;;;;;;5057053;28;20237;-81
2021/09/01 03:14:00;;;;;;;5.95;2.75;;;15.80;99.90;;;;;;5053007;28;20726;-87
2021/09/01 03:16:26;;;;;;;4.80;2.30;;;15.80;99.90;;;;;;5052922;28;20225;-88
2021/09/01 03:18:53;;;;;;;6.57;2.50;;;15.80;99.90;;;;;;5052506;28;20244;-88
2021/09/01 03:21:20;;;;;;;6.40;2.97;;;15.80;99.90;;;;;;5051768;28;20807;-88
2021/09/01 03:23:47;;;;;;;7.57;3.00;;;15.80;99.90;;;;;;5051102;28;20194;-87
2021/09/01 03:26:16;;;;;;;9.30;3.42;;;15.80;99.90;;;;;;5072561;28;20229;-81
2021/09/01 03:28:43;;;;;;;11.73;3.55;;;15.80;99.90;;;;;;5072010;28;20924;-82
2021/09/01 03:31:09;;;;;;;7.10;3.00;;;15.80;99.90;;;;;;5068219;28;20210;-87
2021/09/01 03:33:36;;;;;;;4.80;2.45;;;15.80;99.90;;;;;;5050847;28;20213;-86
2021/09/01 03:36:03;;;;;;;6.68;2.67;;;15.80;99.90;;;;;;5051467;28;20233;-88
2021/09/01 03:38:30;;;;;;;4.37;2.43;;;15.90;99.90;;;;;;5050720;28;20220;-80
2021/09/01 03:40:56;;;;;;;4.80;2.60;;;15.80;99.90;;;;;;5070276;28;20205;-80
2021/09/01 03:43:24;;;;;;;6.87;2.70;;;15.80;99.90;;;;;;5072048;28;20209;-81
2021/09/01 03:45:54;;;;;;;3.20;2.20;;;15.80;99.90;;;;;;5070885;28;20200;-81
2021/09/01 03:48:21;;;;;;;5.25;2.50;;;15.80;99.90;;;;;;5070981;28;20791;-83
2021/09/01 03:50:48;;;;;;;7.38;2.58;;;15.80;99.90;;;;;;5070417;28;20308;-85
2021/09/01 03:53:16;;;;;;;5.97;2.63;;;15.80;99.90;;;;;;5069488;28;20225;-83
2021/09/01 03:55:43;;;;;;;5.77;2.10;;;15.80;99.90;;;;;;5070510;28;20216;-85
2021/09/01 03:58:11;;;;;;;2.97;2.27;;;15.80;99.90;;;;;;5070840;28;20216;-81
2021/09/01 04:00:39;;;;;;;3.80;2.37;;;15.80;99.90;;;;;;5070658;28;20293;-86
2021/09/01 04:03:06;;;;;;;4.53;1.90;;;15.80;99.90;;;;;;5070428;28;20220;-85
2021/09/01 04:05:33;;;;;;;2.90;1.90;;;15.80;99.90;;;;;;5069824;28;20197;-88
2021/09/01 04:08:00;;;;;;;4.57;2.17;;;15.80;99.90;;;;;;5068083;28;20197;-80
2021/09/01 04:10:27;;;;;;;3.53;2.17;;;15.80;99.90;;;;;;5065270;23;20225;-86
2021/09/01 04:12:54;;;;;;;3.93;2.00;;;15.80;99.90;;;;;;5070457;28;20216;-85
2021/09/01 04:15:21;;;;;;;3.50;2.27;;;15.80;99.90;;;;;;5070919;28;20200;-87
2021/09/01 04:17:49;;;;;;;4.07;2.10;;;15.80;99.90;;;;;;5070791;28;20225;-85
2021/09/01 04:20:22;;;;;;;5.73;3.37;;;15.80;99.90;;;;;;5070985;28;20197;-86
2021/09/01 04:22:49;;;;;;;6.77;2.57;;;15.80;99.90;;;;;;5070262;28;20844;-89
2021/09/01 04:25:16;;;;;;;5.25;2.80;;;15.80;99.90;;;;;;5073491;28;20251;-86
2021/09/01 04:27:42;;;;;;;3.17;2.30;;;15.80;99.90;;;;;;5072119;28;20198;-82
2021/09/01 04:30:10;;;;;;;5.30;2.50;;;15.80;99.90;;;;;;5091366;28;20221;-85
2021/09/01 04:32:37;;;;;;;2.53;1.90;;;15.80;99.90;;;;;;5091232;28;20204;-88
2021/09/01 04:35:05;;;;;;;3.27;2.20;;;15.80;99.90;;;;;;5093419;28;20453;-81
2021/09/01 04:37:32;;;;;;;3.60;2.23;;;15.80;99.90;;;;;;5055423;28;20222;-84
2021/09/01 04:39:59;;;;;;;4.03;1.93;;;15.80;99.90;;;;;;5056403;28;20198;-81
2021/09/01 04:42:25;;;;;;;3.70;2.00;;;15.80;99.90;;;;;;5075132;28;20208;-80
2021/09/01 04:44:52;;;;;;;3.63;1.93;;;15.80;99.90;;;;;;5072898;28;20221;-86
2021/09/01 04:47:19;;;;;;;5.00;2.60;;;15.80;99.90;;;;;;5070637;28;20203;-81
2021/09/01 04:49:46;;;;;;;3.93;2.10;;;15.80;99.90;;;;;;5068523;28;20198;-90
2021/09/01 04:52:14;;;;;;;3.90;2.23;;;15.70;99.90;;;;;;5069717;28;20207;-85
2021/09/01 04:54:41;;;;;;;3.27;1.80;;;15.70;99.90;;;;;;5068757;28;20204;-83
2021/09/01 04:57:08;;;;;;;2.87;2.20;;;15.70;99.90;;;;;;5068131;28;20236;-84
2021/09/01 04:59:35;;;;;;;4.03;2.20;;;15.70;99.90;;;;;;5068827;28;20209;-90
2021/09/01 05:02:02;;;;;;;3.70;2.10;;;15.70;99.90;;;;;;5068045;28;20228;-82
2021/09/01 05:04:28;;;;;;;3.45;2.03;;;15.70;99.90;;;;;;5067967;28;20209;-84
2021/09/01 05:06:55;;;;;;;6.70;2.40;;;15.70;99.90;;;;;;5065582;28;20197;-84
2021/09/01 05:09:23;;;;;;;4.23;2.33;;;15.70;99.90;;;;;;5048716;28;20205;-80
2021/09/01 05:11:50;;;;;;;3.13;2.00;;;15.70;99.90;;;;;;5047032;28;20264;-83
2021/09/01 05:14:17;;;;;;;3.20;2.20;;;15.70;99.90;;;;;;5048536;28;20644;-85
2021/09/01 05:16:44;;;;;;;4.83;2.80;;;15.70;99.90;;;;;;5054756;28;20220;-81
2021/09/01 05:19:11;;;;;;;4.53;2.47;;;15.70;99.90;;;;;;5066434;28;20201;-83
2021/09/01 05:21:45;;;;;;;5.97;2.67;;;15.70;99.90;;;;;;5051400;28;20210;-84
2021/09/01 05:24:16;;;;;;;4.85;2.70;;;15.70;99.90;;;;;;5047134;28;20206;-88
2021/09/01 05:26:46;;;;;;;5.20;2.90;;;15.70;99.90;;;;;;5047387;28;20630;-80
2021/09/01 05:29:14;;;;;;;5.03;2.55;;;15.70;99.90;;;;;;5052155;28;20247;-86
2021/09/01 05:31:42;;;;;;;3.58;2.00;;;15.70;99.90;;;;;;5067773;28;20591;-88
2021/09/01 05:34:10;;;;;;;7.65;2.95;;;15.80;99.90;;;;;;5068158;28;20255;-85
2021/09/01 05:36:38;;;;;;;4.10;2.17;;;15.80;99.90;;;;;;5066521;28;20229;-82
2021/09/01 05:39:05;;;;;;;6.73;2.90;;;15.80;99.90;;;;;;5066295;28;20205;-86
2021/09/01 05:41:32;;;;;;;5.97;2.58;;;15.80;99.90;;;;;;5068015;28;20208;-81
2021/09/01 05:44:01;;;;;;;4.80;2.27;;;15.80;99.90;;;;;;5068225;28;20197;-84
2021/09/01 05:46:31;;;;;;;5.07;2.40;;;15.80;99.90;;;;;;5051388;28;20205;-86
2021/09/01 05:48:59;;;;;;;5.13;2.55;;;15.80;99.90;;;;;;5066708;28;20201;-80
2021/09/01 05:51:28;;;;;;;6.93;3.47;;;15.80;99.90;;;;;;5076396;28;20193;-82
2021/09/01 05:53:55;;;;;;;4.87;3.07;;;15.90;99.90;;;;;;5070148;28;20201;-83
2021/09/01 05:56:28;;;;;;;6.55;2.83;;;15.90;99.90;;;;;;5069486;28;20201;-80
2021/09/01 05:58:58;;;;;;;6.80;3.20;;;15.90;99.90;;;;;;5067941;28;20209;-82
2021/09/01 06:01:32;;;;;;;9.00;3.65;;;15.90;99.90;;;;;;5065823;28;20200;-84
2021/09/01 06:04:00;;;;;;;8.88;3.58;;;16.00;99.90;;;;;;5065846;28;20205;-80
2021/09/01 06:06:28;;;;;;;5.95;2.70;;;16.00;99.90;;;;;;5064757;28;20228;-81
2021/09/01 06:08:59;;;;;;;6.60;3.15;;;16.10;99.90;;;;;;5065914;28;20190;-80
2021/09/01 06:11:28;;;;;;;8.70;3.30;;;16.10;99.90;;;;;;5065898;28;20290;-82
2021/09/01 06:13:54;;;;;;;4.15;2.70;;;16.10;99.90;;;;;;5065067;28;20208;-81
2021/09/01 06:16:21;;;;;;;5.03;2.90;;;16.10;99.90;;;;;;5066090;28;20714;-83
2021/09/01 06:18:49;;;;;;;5.28;2.42;;;16.20;99.90;;;;;;5066176;28;20201;-81
2021/09/01 06:21:16;;;;;;;4.60;2.20;;;16.10;99.90;;;;;;5065883;28;20208;-82
2021/09/01 06:23:43;;;;;;;4.72;2.45;;;16.10;99.90;;;;;;5062705;28;20212;-80
2021/09/01 06:26:11;;;;;;;6.43;2.70;;;16.20;99.90;;;;;;5065288;28;20201;-79
2021/09/01 06:28:38;;;;;;;6.00;2.72;;;16.20;99.90;;;;;;5057834;28;20206;-84
2021/09/01 06:31:06;;;;;;;6.68;2.67;;;16.20;99.90;;;;;;5045798;28;20250;-85
2021/09/01 06:33:33;;;;;;;7.00;3.15;;;16.20;99.90;;;;;;5045190;28;20210;-79
2021/09/01 06:36:02;;;;;;;7.60;2.90;;;16.30;99.90;;;;;;5046089;28;20210;-81
2021/09/01 06:38:29;;;;;;;7.95;2.70;;;16.30;99.90;;;;;;5064777;28;20233;-80
2021/09/01 06:40:55;;;;;;;10.07;3.30;;;16.30;99.90;;;;;;5067994;28;20198;-80
2021/09/01 06:43:50;;;;;;;7.05;2.90;;;16.30;99.90;;;;;;5054312;28;20405;-82
2021/09/01 06:46:17;;;;;;;11.02;3.33;;;16.30;99.90;;;;;;5071568;28;20216;-81
2021/09/01 06:48:44;;;;;;;9.70;3.38;;;16.30;99.90;;;;;;5071862;28;20207;-83
2021/09/01 06:51:12;;;;;;;7.78;2.80;;;16.40;99.90;;;;;;5072722;28;20703;-83
2021/09/01 06:53:39;;;;;;;5.93;2.70;;;16.40;99.90;;;;;;5072760;28;20229;-81
2021/09/01 06:56:06;;;;;;;9.70;2.90;;;16.50;99.90;;;;;;5072188;28;20209;-86
2021/09/01 06:58:34;;;;;;;9.73;3.13;;;16.50;99.90;;;;;;5068979;28;20229;-87
2021/09/01 07:01:01;;;;;;;8.17;3.17;;;16.50;99.90;;;;;;5050959;28;20297;-83
2021/09/01 07:03:28;;;;;;;7.53;2.63;;;16.50;99.90;;;;;;5052911;28;20208;-86
2021/09/01 07:05:55;;;;;;;9.50;2.50;;;16.50;99.90;;;;;;5052575;28;20209;-85
2021/09/01 07:08:23;;;;;;;6.60;2.50;;;16.50;99.90;;;;;;5071613;28;20212;-91
2021/09/01 07:10:51;;;;;;;3.93;1.87;;;16.60;99.90;;;;;;5073376;28;20232;-88
2021/09/01 07:13:19;;;;;;;8.48;2.75;;;16.60;99.90;;;;;;5073719;28;20193;-81
2021/09/01 07:15:46;;;;;;;4.25;1.88;;;16.70;99.90;;;;;;5070374;28;20209;-84
2021/09/01 07:18:13;;;;;;;5.32;2.35;;;16.70;99.90;;;;;;5070522;28;20271;-81
2021/09/01 07:20:40;;;;;;;6.68;2.95;;;16.80;99.90;;;;;;5070893;28;20590;-82
2021/09/01 07:23:08;;;;;;;8.35;2.70;;;16.90;99.90;;;;;;5070256;28;20205;-83
2021/09/01 07:25:36;;;;;;;4.53;2.20;;;16.90;99.90;;;;;;5069672;28;20201;-81
2021/09/01 07:28:05;;;;;;;8.27;2.35;;;17.00;99.90;;;;;;5067535;28;20216;-82
2021/09/01 07:30:32;;;;;;;3.92;1.98;;;17.00;99.90;;;;;;5068666;28;20201;-83
2021/09/01 07:32:59;;;;;;;10.15;2.33;;;17.00;99.90;;;;;;5065413;28;20209;-81
2021/09/01 07:35:26;;;;;;;6.95;2.53;;;17.10;99.90;;;;;;5067922;28;20874;-79
2021/09/01 07:37:53;;;;;;;4.18;1.98;;;17.20;99.90;;;;;;5067020;28;20233;-81
2021/09/01 07:40:22;;;;;;;9.90;2.20;;;17.20;99.90;;;;;;5061030;28;20206;-84
2021/09/01 07:42:51;;;;;;;4.75;2.10;;;17.30;99.90;;;;;;5049968;28;20288;-84
2021/09/01 07:45:19;;;;;;;5.47;2.20;;;17.40;99.90;;;;;;5049840;28;20205;-81
2021/09/01 07:47:50;;;;;;;3.53;1.67;;;17.50;99.90;;;;;;5050824;28;20844;-85
2021/09/01 07:50:17;;;;;;;4.40;2.00;;;17.60;99.90;;;;;;5049579;28;20221;-84
2021/09/01 07:52:44;;;;;;;6.65;1.95;;;17.70;99.90;;;;;;5049480;28;20602;-83
2021/09/01 07:55:11;;;;;;;5.03;2.53;;;17.80;99.90;;;;;;5063612;28;20213;-83
2021/09/01 07:57:39;;;;;;;3.85;2.05;;;17.90;99.90;;;;;;5061497;28;20232;-84
2021/09/01 08:00:09;;;;;;;4.90;2.15;;;17.90;99.90;;;;;;5070257;28;20189;-85
2021/09/01 08:02:37;;;;;;;5.53;2.45;;;18.10;99.90;;;;;;5069941;28;20197;-83
2021/09/01 08:05:05;;;;;;;2.40;1.40;;;18.20;99.90;;;;;;5070449;28;20398;-84
2021/09/01 08:07:32;;;;;;;5.03;1.83;;;18.40;99.90;;;;;;5051630;28;20216;-81
2021/09/01 08:09:59;;;;;;;5.43;1.92;;;18.50;99.90;;;;;;5059434;28;20248;-87
2021/09/01 08:12:25;;;;;;;3.45;1.45;;;18.60;99.90;;;;;;5067419;28;20481;-83
2021/09/01 08:14:52;;;;;;;4.25;1.42;;;18.80;99.90;;;;;;5069323;28;20201;-86
2021/09/01 08:17:21;;;;;;;2.22;1.20;;;18.90;99.90;;;;;;5065202;28;20230;-83
2021/09/01 08:19:47;;;;;;;4.90;1.60;;;19.00;99.90;;;;;;5058811;23;20512;-81
2021/09/01 08:22:15;;;;;;;5.03;1.58;;;19.00;99.90;;;;;;5071817;28;20213;-81
2021/09/01 08:24:43;;;;;;;2.92;1.48;;;19.00;99.90;;;;;;5070624;28;20236;-86
2021/09/01 08:27:11;;;;;;;2.28;1.42;;;19.00;99.90;;;;;;5059498;28;20552;-86
2021/09/01 08:29:39;;;;;;;3.17;1.75;;;19.00;99.90;;;;;;5070864;28;20306;-84
2021/09/01 08:32:06;;;;;;;2.53;1.10;;;19.10;99.90;;;;;;5070260;28;20213;-81
2021/09/01 08:34:35;;;;;;;5.78;1.42;;;19.20;99.90;;;;;;5069106;28;20204;-84
2021/09/01 08:37:02;;;;;;;4.32;1.40;;;19.20;99.90;;;;;;5075799;28;20233;-81
2021/09/01 08:39:29;;;;;;;4.00;1.42;;;19.20;99.90;;;;;;5089366;28;20196;-81
2021/09/01 08:41:57;;;;;;;3.03;1.38;;;19.30;99.90;;;;;;5085724;28;20200;-81
2021/09/01 08:44:24;;;;;;;5.43;1.48;;;19.20;99.90;;;;;;5068897;28;20270;-81
2021/09/01 08:46:51;;;;;;;3.63;1.65;;;19.10;99.90;;;;;;5066744;28;20616;-81
2021/09/01 08:49:19;;;;;;;2.63;1.40;;;19.00;99.90;;;;;;5068824;28;20840;-85
2021/09/01 08:51:47;;;;;;;2.45;1.38;;;19.00;99.90;;;;;;5067863;28;20595;-82
2021/09/01 08:54:15;;;;;;;3.22;1.85;;;19.00;99.90;;;;;;5074878;28;20220;-80
2021/09/01 08:56:43;;;;;;;3.25;1.60;;;19.00;99.90;;;;;;5085385;28;20212;-82
2021/09/01 08:59:10;;;;;;;2.45;1.20;;;19.00;99.90;;;;;;5087343;28;20239;-84
2021/09/01 09:01:41;;;;;;;4.70;1.45;;;19.00;99.90;;;;;;5090089;28;20695;-81
2021/09/01 09:04:15;;;;;;;3.40;1.73;;;19.00;99.90;;;;;;5087349;28;20295;-81
2021/09/01 09:06:51;;;;;;;4.03;1.33;;;19.00;99.90;;;;;;5071223;28;20292;-85
2021/09/01 09:09:19;;;;;;;4.22;1.73;;;19.10;99.90;;;;;;5065485;28;20903;-84
2021/09/01 09:11:46;;;;;;;4.65;1.45;;;19.10;99.90;;;;;;5065752;28;20243;-81
2021/09/01 09:14:25;;;;;;;2.90;1.35;;;19.30;99.90;;;;;;5066277;28;20213;-81
2021/09/01 09:17:09;;;;;;;3.67;1.30;;;19.50;99.90;;;;;;5066290;28;20200;-81
2021/09/01 09:19:43;;;;;;;3.83;1.95;;;19.70;99.90;;;;;;5068285;28;20227;-81
2021/09/01 09:22:12;;;;;;;2.85;1.50;;;20.00;99.90;;;;;;5070475;28;20279;-86
2021/09/01 09:24:39;;;;;;;5.93;1.60;;;20.40;99.90;;;;;;5070188;28;20193;-87
2021/09/01 09:27:06;;;;;;;8.68;6.20;;;20.70;99.90;;;;;;5071282;28;20213;-85
2021/09/01 09:29:33;;;;;;;10.95;9.77;;;20.80;99.90;;;;;;5070281;28;20212;-82
2021/09/01 09:32:03;;;;;;;103.45;90.75;;;20.90;99.90;;;;;;5069851;28;20589;-85
2021/09/01 09:34:36;;;;;;;144.60;129.45;;;21.00;99.90;;;;;;5072782;28;20198;-85
2021/09/01 09:37:06;;;;;;;101.32;81.30;;;22.20;99.90;;;;;;5089693;28;20304;-86
2021/09/01 09:39:42;;;;;;;6.68;5.10;;;22.20;99.90;;;;;;5077494;28;20217;-81
2021/09/01 09:42:10;;;;;;;5.30;3.42;;;22.10;99.90;;;;;;5070117;28;20204;-83
2021/09/01 09:44:37;;;;;;;5.10;2.40;;;21.80;99.90;;;;;;5070085;28;20205;-87
2021/09/01 09:47:04;;;;;;;6.70;2.10;;;21.40;99.90;;;;;;5073877;28;20369;-86
2021/09/01 09:49:32;;;;;;;4.68;2.00;;;21.10;99.90;;;;;;5091141;28;20208;-87
2021/09/01 09:52:00;;;;;;;3.70;1.65;;;20.90;99.90;;;;;;5090947;28;20212;-86
2021/09/01 09:54:28;;;;;;;6.63;1.83;;;20.60;99.90;;;;;;5060596;28;20206;-81
2021/09/01 09:57:09;;;;;;;3.10;1.90;;;20.50;99.90;;;;;;5049099;28;20845;-81
2021/09/01 09:59:37;;;;;;;3.28;1.80;;;20.40;99.90;;;;;;5050640;28;20849;-81
2021/09/01 10:02:05;;;;;;;2.80;1.52;;;20.40;99.90;;;;;;5072057;28;20205;-83
2021/09/01 10:04:31;;;;;;;4.40;1.83;;;20.40;99.90;;;;;;5068576;28;20286;-82
2021/09/01 10:06:58;;;;;;;3.08;1.60;;;20.40;99.90;;;;;;5068229;28;20212;-82
2021/09/01 10:09:25;;;;;;;4.30;1.77;;;20.40;99.90;;;;;;5069861;28;20201;-83
2021/09/01 10:11:52;;;;;;;3.85;1.75;;;20.40;99.90;;;;;;5069446;28;20207;-84
2021/09/01 10:14:23;;;;;;;6.10;1.95;;;20.30;99.90;;;;;;5068347;28;20498;-84
2021/09/01 10:16:56;;;;;;;3.30;1.75;;;20.10;99.90;;;;;;5062714;28;20209;-86
2021/09/01 10:19:28;;;;;;;4.40;1.98;;;20.00;99.90;;;;;;5061066;28;20213;-83
2021/09/01 10:21:59;;;;;;;3.88;1.83;;;20.00;99.90;;;;;;5068132;28;20569;-83
2021/09/01 10:24:30;;;;;;;3.00;1.80;;;20.00;99.90;;;;;;5068350;28;20205;-84
2021/09/01 10:27:12;;;;;;;3.25;2.10;;;20.00;99.90;;;;;;5068075;28;20216;-83
2021/09/01 10:29:57;;;;;;;5.63;1.98;;;20.00;99.90;;;;;;5068561;28;20535;-83
2021/09/01 10:32:29;;;;;;;3.78;2.15;;;20.00;99.90;;;;;;5049421;28;20245;-84
2021/09/01 10:35:27;;;;;;;4.72;2.15;;;20.10;99.90;;;;;;5047984;28;20201;-84
2021/09/01 10:37:55;;;;;;;5.82;2.17;;;20.10;99.90;;;;;;5064269;28;21026;-87
2021/09/01 10:40:59;;;;;;;7.00;2.50;;;20.20;99.90;;;;;;5075970;28;20220;-83
2021/09/01 10:43:25;;;;;;;4.80;2.75;;;19.90;99.90;;;;;;5073623;28;20203;-84
2021/09/01 10:45:57;;;;;;;3.70;2.33;;;19.90;99.90;;;;;;5088441;28;20304;-83
2021/09/01 10:48:25;;;;;;;6.70;2.47;;;19.90;99.90;;;;;;5086708;28;20211;-82
2021/09/01 10:50:52;;;;;;;6.47;2.22;;;19.90;99.90;;;;;;5087131;28;20193;-83
2021/09/01 10:53:23;;;;;;;6.05;2.58;;;20.00;99.90;;;;;;5088603;28;20499;-84
2021/09/01 10:56:00;;;;;;;4.10;1.92;;;20.10;99.90;;;;;;5077800;28;20197;-87
2021/09/01 10:58:38;;;;;;;4.03;1.83;;;20.10;99.90;;;;;;5067349;28;20224;-81
2021/09/01 11:01:16;;;;;;;6.78;2.00;;;20.40;99.90;;;;;;5067282;28;20263;-84
2021/09/01 11:03:48;;;;;;;3.80;1.70;;;20.40;99.90;;;;;;5067144;28;20292;-81
2021/09/01 11:06:25;;;;;;;4.93;2.20;;;20.60;99.90;;;;;;5079798;28;20212;-86
2021/09/01 11:09:10;;;;;;;3.17;1.95;;;20.70;99.90;;;;;;5071228;28;20319;-83
2021/09/01 11:11:56;;;;;;;3.90;1.98;;;20.70;99.90;;;;;;5052633;28;20202;-83
2021/09/01 11:14:47;;;;;;;3.28;1.80;;;20.80;99.90;;;;;;5046754;28;20205;-83
2021/09/01 11:17:17;;;;;;;4.13;2.05;;;21.00;99.90;;;;;;5046297;28;20217;-85
2021/09/01 11:19:46;;;;;;;2.58;2.05;;;21.10;99.90;;;;;;5051307;28;20237;-85
2021/09/01 11:22:15;;;;;;;4.00;2.10;;;21.10;99.90;;;;;;5069493;28;20627;-86
2021/09/01 11:24:47;;;;;;;3.42;1.90;;;21.20;99.90;;;;;;5069142;28;20208;-86
2021/09/01 11:27:16;;;;;;;4.88;1.98;;;21.20;99.90;;;;;;5072013;28;20205;-85
2021/09/01 11:29:44;;;;;;;4.10;2.13;;;21.20;99.90;;;;;;5077120;28;20225;-84
2021/09/01 11:32:16;;;;;;;4.90;2.45;;;21.30;99.90;;;;;;5094057;28;20831;-87
2021/09/01 11:34:43;;;;;;;3.58;2.30;;;21.40;99.90;;;;;;5075364;28;20232;-85
2021/09/01 11:37:10;;;;;;;3.20;1.88;;;21.40;99.90;;;;;;5072973;28;20266;-88
2021/09/01 11:39:45;;;;;;;3.88;2.05;;;21.60;99.90;;;;;;5073864;28;20240;-87
2021/09/01 11:42:13;;;;;;;5.47;2.00;;;21.60;99.90;;;;;;5073157;28;20231;-86
2021/09/01 11:44:40;;;;;;;3.00;1.80;;;21.80;99.90;;;;;;5073922;28;20201;-84
2021/09/01 11:47:11;;;;;;;6.20;2.40;;;21.80;99.90;;;;;;5074045;28;20204;-88
2021/09/01 11:49:39;;;;;;;3.70;2.15;;;21.70;99.90;;;;;;5063911;28;20285;-82
2021/09/01 11:52:06;;;;;;;3.53;2.22;;;21.70;99.90;;;;;;5051831;28;20221;-83
2021/09/01 11:54:38;;;;;;;5.00;2.75;;;21.70;99.90;;;;;;5064835;28;20788;-91
2021/09/01 11:57:05;;;;;;;4.40;2.40;;;21.80;99.90;;;;;;5072337;28;20517;-85
2021/09/01 11:59:32;;;;;;;4.32;2.25;;;21.80;99.90;;;;;;5073857;28;20224;-85
2021/09/01 12:02:00;;;;;;;7.93;3.25;;;21.90;99.90;;;;;;5072994;28;20224;-86
2021/09/01 12:04:27;;;;;;;5.47;3.30;;;21.80;99.90;;;;;;5070984;28;20197;-85
2021/09/01 12:06:57;;;;;;;6.25;3.53;;;21.50;99.90;;;;;;5071593;28;20211;-85
2021/09/01 12:09:25;;;;;;;9.27;4.70;;;21.40;99.90;;;;;;5072235;28;20608;-86
2021/09/01 12:11:54;;;;;;;11.00;5.03;;;21.20;99.90;;;;;;5087349;28;20218;-86
2021/09/01 12:14:23;;;;;;;8.63;4.70;;;21.30;99.90;;;;;;5078786;28;20213;-83
2021/09/01 12:16:51;;;;;;;7.80;4.80;;;21.10;99.90;;;;;;5070832;28;20196;-86
2021/09/01 12:19:20;;;;;;;7.05;4.47;;;21.00;99.90;;;;;;5079212;28;20247;-82
2021/09/01 12:21:52;;;;;;;9.40;6.15;;;21.00;99.90;;;;;;5090958;28;20722;-84
2021/09/01 12:24:24;;;;;;;11.15;5.15;;;20.90;99.90;;;;;;5091417;28;20199;-83
2021/09/01 12:26:57;;;;;;;6.15;4.25;;;20.90;99.90;;;;;;5083329;28;20263;-83
2021/09/01 12:29:30;;;;;;;9.30;5.32;;;20.80;99.90;;;;;;5070836;28;20200;-84
2021/09/01 12:31:59;;;;;;;9.05;6.63;;;20.80;99.90;;;;;;5072339;28;20182;-84
2021/09/01 12:34:28;;;;;;;8.18;5.78;;;20.80;99.90;;;;;;5090335;28;20583;-83
2021/09/01 12:37:07;;;;;;;11.18;6.10;;;20.80;99.90;;;;;;5051907;28;20234;-88
2021/09/01 12:39:44;;;;;;;8.60;5.63;;;20.70;99.90;;;;;;5054393;28;20213;-81
2021/09/01 12:42:30;;;;;;;9.13;5.28;;;20.50;99.90;;;;;;5071396;28;20243;-83
2021/09/01 12:44:58;;;;;;;8.13;4.68;;;20.50;99.90;;;;;;5068907;28;20254;-86
2021/09/01 12:47:26;;;;;;;7.70;4.53;;;20.30;99.90;;;;;;5091818;28;20205;-82
2021/09/01 12:49:55;;;;;;;8.05;4.20;;;20.40;99.90;;;;;;5073406;28;20206;-83
2021/09/01 12:52:23;;;;;;;8.05;4.43;;;20.40;99.90;;;;;;5063682;28;20221;-89
2021/09/01 12:54:52;;;;;;;9.43;4.80;;;20.30;99.90;;;;;;5058491;28;20204;-84